createdAt,value
2017-08-17T00:00:47.485Z,101474.19
2017-08-17T00:03:15.392Z,101477.35
2017-08-17T00:05:43.307Z,101469.41
2017-08-17T00:08:11.216Z,101467.14
2017-08-17T00:10:39.521Z,101468.91
2017-08-17T00:13:07.422Z,101465.34
2017-08-17T00:15:35.395Z,101467.58
2017-08-17T00:18:03.462Z,101472.00
2017-08-17T00:20:31.367Z,101471.55
2017-08-17T00:22:59.668Z,101463.61
2017-08-17T00:25:27.575Z,101459.27
2017-08-17T00:27:55.484Z,101459.79
2017-08-17T00:30:24.044Z,101460.73
2017-08-17T00:32:51.944Z,101455.81
2017-08-17T00:35:20.531Z,101463.39
2017-08-17T00:37:48.439Z,101460.23
2017-08-17T00:40:16.344Z,101456.80
2017-08-17T00:42:44.399Z,101457.70
2017-08-17T00:45:12.309Z,101463.03
2017-08-17T00:47:40.619Z,101463.48
2017-08-17T00:50:08.535Z,101459.98
2017-08-17T00:52:36.444Z,101456.92
2017-08-17T00:55:04.367Z,101462.66
2017-08-17T00:57:32.281Z,101472.36
2017-08-17T01:00:00.190Z,101468.92
2017-08-17T01:02:28.103Z,101469.34
2017-08-17T01:04:56.020Z,101468.02
2017-08-17T01:07:23.919Z,101464.48
2017-08-17T01:09:52.592Z,101463.26
2017-08-17T01:12:20.501Z,101463.66
2017-08-17T01:14:48.411Z,101468.58
2017-08-17T01:17:16.337Z,101472.52
2017-08-17T01:19:44.235Z,101465.95
2017-08-17T01:22:12.156Z,101466.39
2017-08-17T01:24:40.443Z,101465.06
2017-08-17T01:27:08.364Z,101465.52
2017-08-17T01:29:36.264Z,101461.60
2017-08-17T01:32:04.213Z,101461.16
2017-08-17T01:34:32.111Z,101463.39
2017-08-17T01:37:00.533Z,101458.12
2017-08-17T01:39:28.445Z,101461.70
2017-08-17T01:41:56.351Z,101454.23
2017-08-17T01:44:24.268Z,101451.16
2017-08-17T01:46:52.176Z,101451.61
2017-08-17T01:49:20.097Z,101447.21
2017-08-17T01:51:47.995Z,101440.22
2017-08-17T01:54:16.310Z,101451.69
2017-08-17T01:56:44.202Z,101444.63
2017-08-17T01:59:12.109Z,101449.48
2017-08-17T02:01:40.427Z,101445.52
2017-08-17T02:04:08.544Z,101434.95
2017-08-17T02:06:36.443Z,101442.41
2017-08-17T02:09:04.365Z,101439.28
2017-08-17T02:11:32.274Z,101434.88
2017-08-17T02:14:00.590Z,101443.23
2017-08-17T02:16:28.620Z,101440.21
2017-08-17T02:18:56.919Z,101427.47
2017-08-17T02:21:24.831Z,101423.49
2017-08-17T02:23:52.767Z,101417.27
2017-08-17T02:26:20.679Z,101420.41
2017-08-17T02:28:48.586Z,101416.89
2017-08-17T02:31:16.489Z,101412.50
2017-08-17T02:33:44.415Z,101406.34
2017-08-17T02:36:12.707Z,101401.51
2017-08-17T02:38:40.631Z,101399.30
2017-08-17T02:41:08.540Z,101396.67
2017-08-17T02:43:36.737Z,101397.98
2017-08-17T02:46:04.635Z,101392.25
2017-08-17T02:48:32.569Z,101391.44
2017-08-17T02:51:00.475Z,101389.23
2017-08-17T02:53:28.380Z,101390.97
2017-08-17T02:55:56.692Z,101382.17
2017-08-17T02:58:24.600Z,101389.68
2017-08-17T03:00:52.522Z,101391.48
2017-08-17T03:03:20.423Z,101394.95
2017-08-17T03:05:48.337Z,101398.91
2017-08-17T03:08:16.650Z,101403.31
2017-08-17T03:10:44.955Z,101405.50
2017-08-17T03:13:12.869Z,101401.55
2017-08-17T03:15:40.771Z,101408.59
2017-08-17T03:20:41.933Z,101419.64
2017-08-17T03:23:09.843Z,101429.34
2017-08-17T03:25:38.142Z,101428.02
2017-08-17T03:28:06.180Z,101424.98
2017-08-17T03:30:34.090Z,101423.19
2017-08-17T03:33:02.007Z,101422.78
2017-08-17T03:35:29.925Z,101424.07
2017-08-17T03:37:57.836Z,101428.95
2017-08-17T03:40:25.756Z,101433.30
2017-08-17T03:42:54.065Z,101425.42
2017-08-17T03:45:22.380Z,101429.39
2017-08-17T03:47:50.287Z,101427.19
2017-08-17T03:50:18.187Z,101425.88
2017-08-17T03:52:46.110Z,101434.23
2017-08-17T03:55:14.416Z,101444.36
2017-08-17T03:57:42.336Z,101443.47
2017-08-17T04:00:10.235Z,101442.59
2017-08-17T04:02:38.156Z,101441.70
2017-08-17T04:05:06.067Z,101437.75
2017-08-17T04:07:34.657Z,101442.98
2017-08-17T04:10:02.559Z,101439.91
2017-08-17T04:12:30.651Z,101435.98
2017-08-17T04:14:58.556Z,101437.30
2017-08-17T04:17:26.867Z,101435.55
2017-08-17T04:19:54.775Z,101428.47
2017-08-17T04:22:22.681Z,101424.50
2017-08-17T04:24:50.600Z,101425.80
2017-08-17T04:27:18.512Z,101420.96
2017-08-17T04:29:46.815Z,101423.11
2017-08-17T04:32:15.625Z,101418.72
2017-08-17T04:34:43.540Z,101415.92
2017-08-17T04:37:11.831Z,101406.47
2017-08-17T04:39:39.732Z,101400.09
2017-08-17T04:42:07.652Z,101394.48
2017-08-17T04:44:35.938Z,101392.86
2017-08-17T04:47:04.249Z,101393.84
2017-08-17T04:49:32.160Z,101390.34
2017-08-17T04:52:00.084Z,101398.45
2017-08-17T04:54:27.988Z,101398.27
2017-08-17T05:00:20.968Z,101384.22
2017-08-17T05:02:48.888Z,101390.38
2017-08-17T05:05:16.788Z,101388.86
2017-08-17T05:07:46.928Z,101386.13
2017-08-17T05:10:14.836Z,101389.80
2017-08-17T05:12:42.748Z,101388.94
2017-08-17T05:15:11.049Z,101394.02
2017-08-17T05:17:38.943Z,101396.90
2017-08-17T05:20:07.245Z,101404.42
2017-08-17T05:22:35.307Z,101409.50
2017-08-17T05:25:03.207Z,101401.91
2017-08-17T05:27:31.117Z,101400.25
2017-08-17T05:29:59.428Z,101403.16
2017-08-17T05:32:27.353Z,101401.18
2017-08-17T05:34:55.265Z,101397.43
2017-08-17T05:37:23.185Z,101406.28
2017-08-17T05:39:51.088Z,101410.53
2017-08-17T05:42:19.440Z,101404.87
2017-08-17T05:44:47.352Z,101407.86
2017-08-17T05:47:15.256Z,101403.16
2017-08-17T05:49:43.163Z,101398.94
2017-08-17T05:52:11.468Z,101399.45
2017-08-17T05:54:39.401Z,101401.14
2017-08-17T05:57:07.687Z,101400.86
2017-08-17T05:59:35.605Z,101397.75
2017-08-17T06:02:03.508Z,101385.28
2017-08-17T06:04:31.575Z,101387.98
2017-08-17T06:06:59.477Z,101387.08
2017-08-17T06:09:27.379Z,101385.47
2017-08-17T06:11:55.287Z,101376.16
2017-08-17T06:14:23.205Z,101380.73
2017-08-17T06:16:51.110Z,101383.52
2017-08-17T06:19:19.025Z,101383.84
2017-08-17T06:21:46.926Z,101380.89
2017-08-17T06:24:14.841Z,101388.30
2017-08-17T06:26:43.142Z,101385.59
2017-08-17T06:29:11.052Z,101387.50
2017-08-17T06:31:39.124Z,101388.13
2017-08-17T06:34:07.040Z,101383.87
2017-08-17T06:36:35.340Z,101386.79
2017-08-17T06:39:03.264Z,101390.09
2017-08-17T06:41:31.163Z,101387.13
2017-08-17T06:43:59.071Z,101391.11
2017-08-17T06:46:26.975Z,101388.30
2017-08-17T06:48:55.292Z,101386.28
2017-08-17T06:51:23.191Z,101383.75
2017-08-17T06:53:51.282Z,101383.56
2017-08-17T06:56:19.193Z,101384.16
2017-08-17T06:58:47.100Z,101372.63
2017-08-17T07:01:15.016Z,101384.84
2017-08-17T07:03:43.311Z,101370.73
2017-08-17T07:06:11.219Z,101376.69
2017-08-17T07:08:39.114Z,101372.71
2017-08-17T07:11:07.433Z,101372.45
2017-08-17T07:13:35.352Z,101371.41
2017-08-17T07:16:03.272Z,101367.84
2017-08-17T07:18:31.171Z,101366.26
2017-08-17T07:20:59.091Z,101361.96
2017-08-17T07:23:26.987Z,101355.97
2017-08-17T07:25:55.083Z,101354.71
2017-08-17T07:28:22.982Z,101357.15
2017-08-17T07:30:51.279Z,101351.06
2017-08-17T07:33:19.191Z,101357.27
2017-08-17T07:35:47.100Z,101355.83
2017-08-17T07:38:15.412Z,101356.55
2017-08-17T07:40:43.708Z,101356.48
2017-08-17T07:43:11.629Z,101356.39
2017-08-17T07:45:39.544Z,101353.24
2017-08-17T07:48:07.459Z,101345.66
2017-08-17T07:50:35.755Z,101353.09
2017-08-17T07:53:04.233Z,101357.95
2017-08-17T07:55:32.131Z,101350.83
2017-08-17T07:58:00.044Z,101345.80
2017-08-17T08:00:27.960Z,101349.73
2017-08-17T08:02:55.923Z,101350.03
2017-08-17T08:05:23.848Z,101348.64
2017-08-17T08:07:51.761Z,101348.30
2017-08-17T08:10:19.700Z,101344.92
2017-08-17T08:12:47.612Z,101350.37
2017-08-17T08:15:15.529Z,101347.77
2017-08-17T08:17:43.440Z,101347.72
2017-08-17T08:20:11.547Z,101351.08
2017-08-17T08:22:39.467Z,101351.11
2017-08-17T08:25:07.387Z,101354.00
2017-08-17T08:27:35.308Z,101346.98
2017-08-17T08:30:03.215Z,101345.12
2017-08-17T08:32:31.133Z,101347.14
2017-08-17T08:34:59.437Z,101348.80
2017-08-17T08:37:27.547Z,101341.83
2017-08-17T08:39:55.455Z,101333.36
2017-08-17T08:42:23.361Z,101335.84
2017-08-17T08:44:51.271Z,101336.90
2017-08-17T08:47:19.594Z,101332.23
2017-08-17T08:49:47.502Z,101322.36
2017-08-17T08:52:15.398Z,101330.70
2017-08-17T08:54:44.048Z,101325.77
2017-08-17T08:57:11.951Z,101330.19
2017-08-17T08:59:40.245Z,101313.73
2017-08-17T09:02:08.163Z,101310.00
2017-08-17T09:04:36.072Z,101308.30
2017-08-17T09:07:04.388Z,101309.14
2017-08-17T09:09:32.297Z,101307.39
2017-08-17T09:12:00.203Z,101300.18
2017-08-17T09:14:28.109Z,101291.77
2017-08-17T09:16:56.392Z,101283.49
2017-08-17T09:19:24.309Z,101281.11
2017-08-17T09:21:52.216Z,101277.50
2017-08-17T09:24:20.313Z,101276.70
2017-08-17T09:26:48.211Z,101273.84
2017-08-17T09:29:16.132Z,101269.98
2017-08-17T09:31:44.047Z,101271.06
2017-08-17T09:34:12.497Z,101271.23
2017-08-17T09:36:40.408Z,101271.86
2017-08-17T09:39:08.577Z,101275.09
2017-08-17T09:41:36.507Z,101254.63
2017-08-17T09:44:04.416Z,101248.75
2017-08-17T09:46:32.405Z,101247.48
2017-08-17T09:49:00.314Z,101243.91
2017-08-17T09:51:28.223Z,101239.92
2017-08-17T09:53:56.123Z,101241.88
2017-08-17T09:56:24.140Z,101233.73
2017-08-17T09:58:52.439Z,101231.98
2017-08-17T10:01:20.352Z,101228.83
2017-08-17T10:03:48.259Z,101232.64
2017-08-17T10:06:16.573Z,101228.62
2017-08-17T10:08:44.497Z,101214.95
2017-08-17T10:11:12.395Z,101216.95
2017-08-17T10:13:40.320Z,101213.08
2017-08-17T10:16:08.228Z,101210.59
2017-08-17T10:18:36.150Z,101204.34
2017-08-17T10:21:04.046Z,101200.59
2017-08-17T10:23:32.602Z,101202.44
2017-08-17T10:26:00.521Z,101206.14
2017-08-17T10:28:28.419Z,101203.44
2017-08-17T10:30:56.337Z,101207.75
2017-08-17T10:33:24.631Z,101195.22
2017-08-17T10:35:52.967Z,101203.59
2017-08-17T10:38:20.898Z,101192.73
2017-08-17T10:40:48.809Z,101193.55
2017-08-17T10:43:16.719Z,101182.77
2017-08-17T10:45:44.632Z,101197.48
2017-08-17T10:48:12.543Z,101199.79
2017-08-17T10:50:40.848Z,101177.72
2017-08-17T10:53:09.207Z,101181.09
2017-08-17T10:55:37.389Z,101183.70
2017-08-17T10:58:05.295Z,101172.81
2017-08-17T11:00:33.217Z,101180.44
2017-08-17T11:03:01.524Z,101166.39
2017-08-17T11:05:29.468Z,101162.48
2017-08-17T11:07:57.371Z,101163.30
2017-08-17T11:10:25.324Z,101151.83
2017-08-17T11:12:53.227Z,101145.55
2017-08-17T11:15:21.149Z,101149.95
2017-08-17T11:17:49.047Z,101138.55
2017-08-17T11:20:16.960Z,101144.80
2017-08-17T11:22:45.264Z,101152.89
2017-08-17T11:25:13.184Z,101146.99
2017-08-17T11:27:41.103Z,101140.78
2017-08-17T11:30:09.017Z,101140.39
2017-08-17T11:32:36.952Z,101133.38
2017-08-17T11:35:04.855Z,101120.41
2017-08-17T11:37:32.936Z,101124.67
2017-08-17T11:40:00.843Z,101121.94
2017-08-17T11:42:28.757Z,101124.39
2017-08-17T11:44:56.684Z,101123.01
2017-08-17T11:47:24.605Z,101115.70
2017-08-17T11:49:52.514Z,101121.19
2017-08-17T11:52:20.420Z,101125.42
2017-08-17T11:54:48.768Z,101110.70
2017-08-17T11:57:16.940Z,101108.17
2017-08-17T11:59:44.846Z,101104.00
2017-08-17T12:02:12.770Z,101101.54
2017-08-17T12:04:41.359Z,101106.12
2017-08-17T12:07:09.280Z,101106.30
2017-08-17T12:09:37.184Z,101106.64
2017-08-17T12:12:05.501Z,101103.05
2017-08-17T12:14:33.420Z,101094.44
2017-08-17T12:17:01.335Z,101099.50
2017-08-17T12:19:29.249Z,101093.31
2017-08-17T12:21:57.421Z,101100.41
2017-08-17T12:24:25.322Z,101097.70
2017-08-17T12:26:53.236Z,101096.13
2017-08-17T12:29:21.142Z,101095.64
2017-08-17T12:31:49.442Z,101095.83
2017-08-17T12:34:17.352Z,101096.16
2017-08-17T12:36:45.268Z,101099.30
2017-08-17T12:39:13.722Z,101088.85
2017-08-17T12:41:41.628Z,101082.48
2017-08-17T12:44:09.526Z,101079.82
2017-08-17T12:46:37.457Z,101081.03
2017-08-17T12:49:05.755Z,101078.66
2017-08-17T12:51:33.667Z,101078.90
2017-08-17T12:54:01.572Z,101075.14
2017-08-17T12:56:29.883Z,101083.83
2017-08-17T12:58:58.032Z,101080.12
2017-08-17T13:01:26.159Z,101075.78
2017-08-17T13:03:54.058Z,101066.48
2017-08-17T13:06:22.368Z,101067.59
2017-08-17T13:08:50.291Z,101067.03
2017-08-17T13:11:18.192Z,101065.69
2017-08-17T13:13:46.117Z,101057.63
2017-08-17T13:16:14.028Z,101056.69
2017-08-17T13:18:41.952Z,101046.11
2017-08-17T13:21:09.856Z,101043.84
2017-08-17T13:23:38.299Z,101037.86
2017-08-17T13:26:06.199Z,101031.91
2017-08-17T13:28:34.509Z,101026.13
2017-08-17T13:31:02.428Z,101023.09
2017-08-17T13:33:30.336Z,101025.45
2017-08-17T13:35:58.247Z,101020.06
2017-08-17T13:38:26.151Z,101024.30
2017-08-17T13:40:54.500Z,101019.50
2017-08-17T13:43:22.467Z,101020.77
2017-08-17T13:45:50.384Z,101012.15
2017-08-17T13:48:18.292Z,101008.16
2017-08-17T13:50:46.213Z,101003.98
2017-08-17T13:53:14.154Z,101000.39
2017-08-17T13:55:42.078Z,100995.58
2017-08-17T13:58:09.979Z,100998.34
2017-08-17T14:00:38.055Z,100988.68
2017-08-17T14:03:05.970Z,100992.86
2017-08-17T14:05:33.888Z,100985.21
2017-08-17T14:08:01.807Z,100978.44
2017-08-17T14:10:29.735Z,100982.89
2017-08-17T14:12:57.646Z,100976.72
2017-08-17T14:15:25.546Z,100976.02
2017-08-17T14:17:53.458Z,100965.21
2017-08-17T14:20:21.777Z,100958.44
2017-08-17T14:22:49.690Z,100960.83
2017-08-17T14:25:17.609Z,100957.33
2017-08-17T14:27:45.513Z,100952.00
2017-08-17T14:30:13.437Z,100953.26
2017-08-17T14:32:41.355Z,100952.45
2017-08-17T14:35:09.275Z,100958.70
2017-08-17T14:37:37.225Z,100954.87
2017-08-17T14:40:05.548Z,100950.45
2017-08-17T14:42:33.463Z,100949.72
2017-08-17T14:45:01.776Z,100946.55
2017-08-17T14:47:29.716Z,100936.18
2017-08-17T14:49:58.036Z,100946.50
2017-08-17T14:52:25.944Z,100941.53
2017-08-17T14:54:53.873Z,100946.84
2017-08-17T14:57:21.809Z,100936.22
2017-08-17T14:59:49.879Z,100939.13
2017-08-17T15:02:18.192Z,100927.05
2017-08-17T15:04:46.095Z,100926.87
2017-08-17T15:07:14.017Z,100922.12
2017-08-17T15:09:41.914Z,100917.98
2017-08-17T15:12:09.855Z,100913.55
2017-08-17T15:14:37.760Z,100916.58
2017-08-17T15:17:05.685Z,100916.97
2017-08-17T15:19:33.600Z,100913.74
2017-08-17T15:22:01.819Z,100908.55
2017-08-17T15:24:29.718Z,100908.64
2017-08-17T15:26:57.673Z,100905.62
2017-08-17T15:29:25.592Z,100895.44
2017-08-17T15:31:53.495Z,100898.96
2017-08-17T15:34:21.407Z,100890.00
2017-08-17T15:36:49.645Z,100884.52
2017-08-17T15:39:17.555Z,100881.90
2017-08-17T15:41:45.466Z,100890.23
2017-08-17T15:44:13.779Z,100884.89
2017-08-17T15:46:41.932Z,100884.45
2017-08-17T15:49:09.977Z,100881.02
2017-08-17T15:51:38.270Z,100880.42
2017-08-17T15:54:06.862Z,100868.84
2017-08-17T15:56:34.781Z,100877.08
2017-08-17T15:59:02.694Z,100874.72
2017-08-17T16:01:30.607Z,100871.72
2017-08-17T16:03:58.523Z,100874.59
2017-08-17T16:06:26.844Z,100867.61
2017-08-17T16:08:54.743Z,100874.31
2017-08-17T16:11:22.668Z,100867.14
2017-08-17T16:13:50.567Z,100864.02
2017-08-17T16:16:18.491Z,100866.91
2017-08-17T16:18:46.391Z,100856.84
2017-08-17T16:21:14.706Z,100861.23
2017-08-17T16:23:42.723Z,100854.09
2017-08-17T16:26:10.623Z,100853.81
2017-08-17T16:28:38.543Z,100852.51
2017-08-17T16:31:06.457Z,100850.43
2017-08-17T16:33:34.378Z,100846.24
2017-08-17T16:36:02.684Z,100842.56
2017-08-17T16:38:30.644Z,100847.25
2017-08-17T16:40:58.558Z,100837.11
2017-08-17T16:43:26.475Z,100841.59
2017-08-17T16:45:54.397Z,100839.70
2017-08-17T16:48:22.329Z,100842.66
2017-08-17T16:50:50.231Z,100839.20
2017-08-17T16:53:18.447Z,100839.69
2017-08-17T16:55:46.570Z,100839.96
2017-08-17T16:58:14.656Z,100832.12
2017-08-17T17:00:42.555Z,100827.61
2017-08-17T17:03:10.851Z,100825.64
2017-08-17T17:05:38.804Z,100829.23
2017-08-17T17:08:06.717Z,100827.17
2017-08-17T17:10:34.636Z,100823.13
2017-08-17T17:13:02.949Z,100820.01
2017-08-17T17:15:30.863Z,100825.44
2017-08-17T17:17:58.767Z,100814.81
2017-08-17T17:20:26.679Z,100818.39
2017-08-17T17:22:54.579Z,100822.66
2017-08-17T17:25:22.890Z,100829.03
2017-08-17T17:27:50.790Z,100824.55
2017-08-17T17:30:18.881Z,100824.41
2017-08-17T17:32:46.778Z,100822.38
2017-08-17T17:35:15.091Z,100821.30
2017-08-17T17:37:43.003Z,100814.85
2017-08-17T17:40:10.916Z,100812.83
2017-08-17T17:42:38.822Z,100822.30
2017-08-17T17:45:06.743Z,100822.46
2017-08-17T17:47:34.654Z,100812.79
2017-08-17T17:50:02.564Z,100820.69
2017-08-17T17:52:30.880Z,100818.62
2017-08-17T17:54:58.783Z,100825.84
2017-08-17T17:57:26.954Z,100829.02
2017-08-17T17:59:54.851Z,100821.80
2017-08-17T18:02:23.151Z,100828.56
2017-08-17T18:04:51.101Z,100816.20
2017-08-17T18:07:19.698Z,100821.88
2017-08-17T18:09:47.616Z,100820.02
2017-08-17T18:12:15.532Z,100812.93
2017-08-17T18:14:43.456Z,100822.25
2017-08-17T18:17:11.369Z,100825.89
2017-08-17T18:19:39.276Z,100822.91
2017-08-17T18:22:07.217Z,100828.06
2017-08-17T18:24:35.115Z,100821.21
2017-08-17T18:27:03.031Z,100825.02
2017-08-17T18:29:31.326Z,100827.22
2017-08-17T18:31:59.492Z,100830.86
2017-08-17T18:34:27.408Z,100838.61
2017-08-17T18:36:55.315Z,100838.64
2017-08-17T18:39:23.628Z,100847.47
2017-08-17T18:41:51.544Z,100849.09
2017-08-17T18:44:19.481Z,100862.09
2017-08-17T18:46:47.383Z,100873.05
2017-08-17T18:49:15.286Z,100901.05
2017-08-17T18:51:43.183Z,100907.84
2017-08-17T18:54:11.289Z,100899.06
2017-08-17T18:56:39.196Z,100879.74
2017-08-17T18:59:07.119Z,100872.19
2017-08-17T19:01:35.051Z,100868.62
2017-08-17T19:04:02.967Z,100873.47
2017-08-17T19:06:30.879Z,100872.83
2017-08-17T19:08:58.789Z,100869.03
2017-08-17T19:11:26.703Z,100863.32
2017-08-17T19:13:54.606Z,100868.63
2017-08-17T19:16:22.958Z,100871.27
2017-08-17T19:18:50.869Z,100871.47
2017-08-17T19:21:18.783Z,100876.22
2017-08-17T19:23:47.114Z,100877.30
2017-08-17T19:26:15.043Z,100876.02
2017-08-17T19:28:42.961Z,100867.59
2017-08-17T19:31:10.872Z,100860.66
2017-08-17T19:33:38.792Z,100850.03
2017-08-17T19:36:06.707Z,100842.12
2017-08-17T19:38:35.024Z,100837.63
2017-08-17T19:41:02.937Z,100833.56
2017-08-17T19:43:31.409Z,100835.88
2017-08-17T19:45:59.311Z,100832.86
2017-08-17T19:48:27.216Z,100834.33
2017-08-17T19:50:55.137Z,100828.27
2017-08-17T19:53:23.436Z,100828.65
2017-08-17T19:55:51.352Z,100828.27
2017-08-17T19:58:19.249Z,100827.48
2017-08-17T20:00:47.559Z,100823.33
2017-08-17T20:03:15.460Z,100821.09
2017-08-17T20:05:43.382Z,100815.80
2017-08-17T20:08:11.304Z,100813.81
2017-08-17T20:10:39.216Z,100813.84
2017-08-17T20:13:07.138Z,100818.40
2017-08-17T20:15:35.217Z,100816.44
2017-08-17T20:18:03.136Z,100814.64
2017-08-17T20:20:31.045Z,100812.08
2017-08-17T20:22:58.972Z,100817.20
2017-08-17T20:25:26.897Z,100815.66
2017-08-17T20:27:54.823Z,100824.92
2017-08-17T20:30:22.742Z,100819.52
2017-08-17T20:32:50.660Z,100823.87
2017-08-17T20:35:18.573Z,100816.69
2017-08-17T20:37:46.487Z,100825.69
2017-08-17T20:40:14.387Z,100828.30
2017-08-17T20:42:42.287Z,100825.66
2017-08-17T20:45:10.604Z,100821.45
2017-08-17T20:47:38.515Z,100813.21
2017-08-17T20:50:06.832Z,100828.40
2017-08-17T20:52:34.744Z,100828.11
2017-08-17T20:55:03.027Z,100826.80
2017-08-17T20:57:30.942Z,100840.94
2017-08-17T20:59:58.854Z,100840.20
2017-08-17T21:02:26.801Z,100845.50
2017-08-17T21:04:54.773Z,100853.33
2017-08-17T21:07:22.788Z,100849.66
2017-08-17T21:09:50.709Z,100847.43
2017-08-17T21:12:18.614Z,100848.62
2017-08-17T21:14:46.530Z,100850.58
2017-08-17T21:17:14.985Z,100846.94
2017-08-17T21:19:42.891Z,100844.60
2017-08-17T21:22:10.808Z,100846.96
2017-08-17T21:24:38.776Z,100850.22
2017-08-17T21:27:06.686Z,100852.22
2017-08-17T21:29:35.001Z,100848.09
2017-08-17T21:32:02.912Z,100855.06
2017-08-17T21:34:31.224Z,100851.53
2017-08-17T21:36:59.139Z,100851.54
2017-08-17T21:39:27.065Z,100850.67
2017-08-17T21:41:54.979Z,100850.67
2017-08-17T21:44:22.901Z,100848.27
2017-08-17T21:46:50.803Z,100851.81
2017-08-17T21:49:18.728Z,100848.95
2017-08-17T21:51:46.639Z,100852.08
2017-08-17T21:54:14.544Z,100851.58
2017-08-17T21:56:42.852Z,100859.25
2017-08-17T21:59:10.762Z,100856.08
2017-08-17T22:01:38.672Z,100863.32
2017-08-17T22:04:06.588Z,100867.52
2017-08-17T22:06:34.503Z,100867.02
2017-08-17T22:09:02.808Z,100867.86
2017-08-17T22:11:30.961Z,100864.06
2017-08-17T22:13:59.303Z,100863.46
2017-08-17T22:16:27.220Z,100860.44
2017-08-17T22:18:55.140Z,100869.76
2017-08-17T22:21:23.050Z,100870.47
2017-08-17T22:23:50.962Z,100875.51
2017-08-17T22:26:18.870Z,100882.31
2017-08-17T22:28:47.184Z,100878.80
2017-08-17T22:31:15.092Z,100873.42
2017-08-17T22:33:43.002Z,100875.56
2017-08-17T22:36:10.916Z,100892.10
2017-08-17T22:38:38.836Z,100882.62
2017-08-17T22:41:07.137Z,100881.63
2017-08-17T22:43:35.454Z,100890.65
2017-08-17T22:46:03.369Z,100887.69
2017-08-17T22:48:31.285Z,100883.58
2017-08-17T22:50:59.224Z,100893.57
2017-08-17T22:53:27.118Z,100891.64
2017-08-17T22:55:55.037Z,100885.11
2017-08-17T22:58:22.952Z,100891.84
2017-08-17T23:00:50.893Z,100892.48
2017-08-17T23:03:18.808Z,100887.78
2017-08-17T23:05:46.723Z,100892.70
2017-08-17T23:08:14.623Z,100889.19
2017-08-17T23:10:42.712Z,100880.87
2017-08-17T23:13:10.624Z,100886.53
2017-08-17T23:15:38.527Z,100883.94
2017-08-17T23:18:06.440Z,100885.52
2017-08-17T23:20:34.744Z,100884.61
2017-08-17T23:23:02.728Z,100879.72
2017-08-17T23:25:30.744Z,100884.76
2017-08-17T23:27:58.662Z,100881.41
2017-08-17T23:30:26.555Z,100877.44
2017-08-17T23:32:54.468Z,100886.82
2017-08-17T23:35:22.773Z,100882.86
2017-08-17T23:37:50.886Z,100883.69
2017-08-17T23:40:18.787Z,100879.47
2017-08-17T23:42:47.087Z,100884.08
2017-08-17T23:45:15.007Z,100883.77
2017-08-17T23:47:42.983Z,100884.79
2017-08-17T23:50:10.905Z,100889.17
2017-08-17T23:52:38.820Z,100887.94
2017-08-17T23:55:06.726Z,100885.38
2017-08-17T23:57:34.636Z,100883.83
